createdAt,value
2022-11-29T00:02:28.912Z,82.64
2022-11-29T00:07:32.960Z,83.89
2022-11-29T00:12:37.158Z,83.65
2022-11-29T00:17:42.860Z,84.82
2022-11-29T00:22:47.044Z,85.31
2022-11-29T00:27:54.141Z,85.29
2022-11-29T00:32:59.621Z,84.65
2022-11-29T00:38:03.540Z,84.03
2022-11-29T00:43:07.466Z,83.55
2022-11-29T00:48:12.893Z,84.61
2022-11-29T00:53:17.023Z,85.67
2022-11-29T00:58:21.754Z,85.73
2022-11-29T01:03:28.600Z,85.43
2022-11-29T01:08:33.438Z,86.07
2022-11-29T01:13:37.706Z,86.22
2022-11-29T01:18:44.199Z,85.42
2022-11-29T01:23:49.833Z,85.39
2022-11-29T01:28:55.289Z,85.05
2022-11-29T01:34:03.812Z,86.43
2022-11-29T01:39:09.078Z,88.37
2022-11-29T01:44:47.490Z,89.56
2022-11-29T01:49:53.011Z,90.17
2022-11-29T01:54:59.755Z,89.55
2022-11-29T02:00:08.841Z,89.17
2022-11-29T02:05:22.258Z,89.69
2022-11-29T02:10:39.946Z,88.75
2022-11-29T02:15:53.255Z,87.36
2022-11-29T02:21:28.674Z,88.05
2022-11-29T02:27:04.820Z,87.01
2022-11-29T02:33:00.704Z,86.40
2022-11-29T02:38:32.171Z,85.48
2022-11-29T02:44:08.730Z,85.26
2022-11-29T02:49:22.439Z,85.75
2022-11-29T02:54:36.011Z,85.56
2022-11-29T02:59:49.501Z,85.53
2022-11-29T03:05:01.201Z,84.29
2022-11-29T03:10:15.341Z,83.04
2022-11-29T03:15:28.552Z,83.64
2022-11-29T03:20:46.416Z,83.35
2022-11-29T03:25:58.602Z,82.65
2022-11-29T03:31:08.600Z,82.78
2022-11-29T03:36:20.287Z,82.51
2022-11-29T03:41:32.465Z,82.01
2022-11-29T03:46:43.837Z,82.33
2022-11-29T03:52:00.110Z,82.89
2022-11-29T03:57:06.198Z,84.03
2022-11-29T04:03:03.118Z,85.43
2022-11-29T04:08:28.523Z,85.62
2022-11-29T04:14:11.569Z,85.69
2022-11-29T04:19:46.777Z,86.68
2022-11-29T04:25:30.669Z,84.89
2022-11-29T04:30:46.238Z,85.66
2022-11-29T04:36:06.627Z,85.10
2022-11-29T04:41:34.212Z,85.48
2022-11-29T04:46:58.020Z,86.54
2022-11-29T04:52:31.259Z,85.65
2022-11-29T04:57:40.678Z,86.35
2022-11-29T05:02:55.813Z,87.87
2022-11-29T05:08:21.465Z,88.74
2022-11-29T05:13:35.408Z,88.37
2022-11-29T05:19:13.169Z,87.21
2022-11-29T05:24:29.912Z,87.00
2022-11-29T05:29:42.636Z,86.58
2022-11-29T05:35:22.935Z,86.35
2022-11-29T05:40:46.197Z,85.90
2022-11-29T05:45:56.995Z,86.00
2022-11-29T05:51:16.115Z,87.27
2022-11-29T05:56:35.804Z,86.72
2022-11-29T06:01:49.634Z,87.15
2022-11-29T06:07:04.570Z,87.86
2022-11-29T06:12:19.620Z,87.64
2022-11-29T06:17:47.516Z,86.42
2022-11-29T06:23:24.975Z,85.76
2022-11-29T06:28:42.831Z,86.40
2022-11-29T06:33:59.798Z,87.51
2022-11-29T06:39:04.699Z,84.21
2022-11-29T06:44:12.068Z,85.76
2022-11-29T06:49:24.575Z,86.86
2022-11-29T06:54:41.531Z,84.96
2022-11-29T06:59:58.469Z,83.76
2022-11-29T07:05:14.209Z,83.70
2022-11-29T07:10:20.497Z,83.62
2022-11-29T07:15:28.210Z,82.80
2022-11-29T07:20:40.636Z,82.92
2022-11-29T07:25:57.275Z,83.53
2022-11-29T07:31:10.976Z,83.95
2022-11-29T07:36:22.856Z,83.81
2022-11-29T07:41:37.079Z,83.69
2022-11-29T07:46:43.935Z,83.89
2022-11-29T07:51:47.987Z,85.34
2022-11-29T07:56:51.937Z,85.70
2022-11-29T08:01:58.933Z,85.72
2022-11-29T08:07:03.192Z,87.19
2022-11-29T08:12:07.584Z,87.39
2022-11-29T08:17:13.769Z,86.99
2022-11-29T08:22:17.794Z,84.96
2022-11-29T08:27:24.886Z,87.22
2022-11-29T08:32:30.340Z,87.19
2022-11-29T08:37:34.734Z,87.94
2022-11-29T08:42:38.758Z,88.25
2022-11-29T08:47:44.890Z,86.66
2022-11-29T08:53:07.944Z,86.58
2022-11-29T08:58:14.419Z,86.52
2022-11-29T09:03:37.272Z,86.79
2022-11-29T09:08:43.708Z,86.75
2022-11-29T09:13:50.487Z,86.42
2022-11-29T09:18:56.082Z,85.69
2022-11-29T09:24:01.497Z,86.40
2022-11-29T09:29:07.593Z,86.03
2022-11-29T09:34:15.562Z,86.16
2022-11-29T09:39:19.578Z,85.83
2022-11-29T09:44:30.418Z,86.39
2022-11-29T09:50:04.826Z,85.66
2022-11-29T09:55:25.229Z,86.01
2022-11-29T10:00:31.927Z,85.89
2022-11-29T10:05:44.237Z,85.88
2022-11-29T10:10:52.109Z,87.19
2022-11-29T10:16:00.770Z,86.93
2022-11-29T10:21:11.744Z,85.96
2022-11-29T10:26:16.188Z,85.98
2022-11-29T10:31:25.189Z,85.22
2022-11-29T10:36:35.775Z,86.29
2022-11-29T10:41:40.324Z,86.08
2022-11-29T10:46:44.439Z,87.78
2022-11-29T10:51:49.748Z,87.53
2022-11-29T10:56:54.769Z,87.54
2022-11-29T11:02:00.571Z,87.28
2022-11-29T11:07:07.955Z,87.44
2022-11-29T11:12:23.447Z,88.07
2022-11-29T11:17:32.760Z,87.00
2022-11-29T11:22:40.022Z,88.40
2022-11-29T11:27:44.277Z,89.01
2022-11-29T11:33:09.881Z,87.79
2022-11-29T11:38:20.031Z,88.55
2022-11-29T11:43:24.450Z,86.88
2022-11-29T11:48:29.083Z,86.88
2022-11-29T11:53:37.984Z,86.55
2022-11-29T11:58:51.581Z,86.95
2022-11-29T12:04:03.901Z,86.82
2022-11-29T12:09:18.874Z,86.42
2022-11-29T12:14:34.129Z,86.32
2022-11-29T12:19:49.094Z,86.98
2022-11-29T12:25:01.327Z,86.44
2022-11-29T12:30:13.940Z,86.88
2022-11-29T12:35:40.483Z,87.13
2022-11-29T12:40:55.292Z,85.63
2022-11-29T12:46:09.487Z,86.43
2022-11-29T12:51:19.876Z,86.75
2022-11-29T12:56:28.821Z,86.29
2022-11-29T13:01:40.852Z,88.01
2022-11-29T13:06:54.330Z,89.40
2022-11-29T13:12:06.574Z,89.23
2022-11-29T13:17:23.847Z,89.94
2022-11-29T13:22:37.040Z,90.32
2022-11-29T13:27:56.211Z,89.44
2022-11-29T13:33:06.410Z,89.42
2022-11-29T13:38:19.909Z,90.10
2022-11-29T13:43:31.621Z,90.15
2022-11-29T13:48:47.068Z,90.58
2022-11-29T13:53:51.820Z,90.83
2022-11-29T13:58:59.057Z,91.58
2022-11-29T14:04:08.026Z,91.05
2022-11-29T14:09:25.959Z,91.65
2022-11-29T14:14:36.787Z,91.26
2022-11-29T14:19:40.808Z,90.52
2022-11-29T14:24:58.716Z,90.95
2022-11-29T14:30:04.201Z,90.79
2022-11-29T14:35:18.074Z,90.75
2022-11-29T14:40:32.749Z,92.12
2022-11-29T14:45:38.879Z,92.37
2022-11-29T14:50:43.993Z,93.12
2022-11-29T14:55:48.720Z,92.66
2022-11-29T15:01:08.192Z,93.41
2022-11-29T15:06:24.351Z,93.34
2022-11-29T15:11:37.922Z,93.40
2022-11-29T15:17:09.338Z,93.46
2022-11-29T15:22:19.234Z,94.25
2022-11-29T15:27:24.801Z,93.87
2022-11-29T15:32:33.090Z,94.17
2022-11-29T15:37:44.722Z,94.06
2022-11-29T15:42:53.540Z,94.46
2022-11-29T15:48:15.792Z,94.34
2022-11-29T15:53:26.916Z,94.54
2022-11-29T15:58:34.541Z,94.60
2022-11-29T16:03:42.530Z,93.89
2022-11-29T16:08:47.597Z,95.27
2022-11-29T16:14:18.126Z,95.24
2022-11-29T16:19:33.128Z,94.70
2022-11-29T16:24:39.842Z,93.97
2022-11-29T16:29:46.671Z,94.40
2022-11-29T16:34:53.735Z,94.95
2022-11-29T16:40:01.415Z,94.54
2022-11-29T16:45:34.409Z,95.03
2022-11-29T16:50:41.062Z,94.68
2022-11-29T16:55:46.742Z,93.75
2022-11-29T17:00:50.735Z,94.05
2022-11-29T17:05:56.616Z,94.24
2022-11-29T17:11:01.423Z,94.24
2022-11-29T17:16:08.727Z,93.79
2022-11-29T17:21:22.804Z,93.05
2022-11-29T17:26:26.882Z,92.22
2022-11-29T17:31:32.783Z,93.40
2022-11-29T17:36:39.551Z,92.57
2022-11-29T17:41:43.667Z,93.78
2022-11-29T17:46:49.039Z,94.91
2022-11-29T17:51:57.081Z,95.57
2022-11-29T17:57:03.764Z,94.31
2022-11-29T18:02:08.262Z,94.78
2022-11-29T18:07:15.899Z,93.74
2022-11-29T18:12:23.692Z,95.21
2022-11-29T18:17:27.772Z,94.54
2022-11-29T18:22:34.195Z,95.20
2022-11-29T18:27:38.455Z,94.98
2022-11-29T18:32:46.968Z,95.33
2022-11-29T18:43:18.294Z,94.62
2022-11-29T18:48:22.755Z,94.33
2022-11-29T18:53:29.082Z,94.37
2022-11-29T18:58:33.360Z,93.90
2022-11-29T19:03:39.377Z,94.94
2022-11-29T19:08:47.206Z,96.06
2022-11-29T19:13:56.662Z,94.41
2022-11-29T19:19:04.846Z,94.14
2022-11-29T19:24:17.488Z,95.85
2022-11-29T19:29:21.588Z,96.27
2022-11-29T19:34:25.604Z,96.62
2022-11-29T19:39:31.328Z,97.80
2022-11-29T19:44:54.304Z,99.28
2022-11-29T19:50:02.495Z,98.26
2022-11-29T19:55:10.710Z,97.71
2022-11-29T20:00:25.288Z,97.11
2022-11-29T20:05:29.506Z,97.27
2022-11-29T20:10:36.755Z,96.71
2022-11-29T20:15:41.256Z,97.69
2022-11-29T20:20:45.279Z,97.78
2022-11-29T20:25:52.219Z,97.82
2022-11-29T20:30:56.842Z,95.69
2022-11-29T20:36:15.621Z,95.37
2022-11-29T20:41:26.672Z,93.75
2022-11-29T20:46:32.759Z,93.56
2022-11-29T20:51:45.976Z,93.78
2022-11-29T20:56:51.558Z,94.59
2022-11-29T21:01:57.045Z,95.73
2022-11-29T21:07:02.135Z,94.61
2022-11-29T21:12:11.330Z,93.48
2022-11-29T21:17:18.765Z,94.22
2022-11-29T21:22:29.913Z,93.98
2022-11-29T21:27:36.642Z,93.92
2022-11-29T21:32:41.813Z,93.23
2022-11-29T21:37:46.314Z,94.64
2022-11-29T21:42:51.826Z,95.64
2022-11-29T21:47:56.138Z,95.80
2022-11-29T21:53:00.061Z,96.89
2022-11-29T21:58:05.430Z,97.15
2022-11-29T22:03:09.443Z,96.07
2022-11-29T22:08:14.195Z,95.54
2022-11-29T22:13:19.558Z,95.85
2022-11-29T22:18:27.105Z,95.99
2022-11-29T22:23:31.385Z,96.99
2022-11-29T22:28:37.263Z,97.19
2022-11-29T22:33:41.535Z,96.94
2022-11-29T22:38:45.896Z,96.10
2022-11-29T22:43:51.755Z,96.43
2022-11-29T22:48:57.009Z,96.34
2022-11-29T22:54:02.455Z,95.24
2022-11-29T22:59:07.951Z,93.54
2022-11-29T23:04:13.377Z,94.66
2022-11-29T23:09:21.184Z,93.65
2022-11-29T23:14:26.631Z,94.54
2022-11-29T23:19:30.831Z,95.12
2022-11-29T23:24:34.800Z,95.37
2022-11-29T23:29:40.224Z,95.98
2022-11-29T23:34:44.432Z,96.08
2022-11-29T23:39:48.628Z,95.34
2022-11-29T23:44:54.312Z,95.92
2022-11-29T23:49:58.298Z,94.76
2022-11-29T23:55:02.383Z,95.36
